Flight Track Log - Related Links

Times and Time Zones

All times are in EDT time to prevent confusion due to time zone crossing. See the CSN3290 flight status page for this flight to view local times or setup timezone preferences in your user account.

Time Position Orientation Groundspeed Altitude Reporting Facility
EDT Latitude Longitude Course Direction KTS MPH feet Rate Location/Type
Sun 11:53:00 AM 31.0877 121.6888 238° Southwest  Level Estimated
Sun 11:54:00 AM 31.0325 121.5854 238° Southwest  Level Estimated
Sun 11:55:00 AM 30.9773 121.4821 238° Southwest  Level Estimated
Sun 11:56:00 AM 30.9219 121.3790 238° Southwest  Level Estimated
Sun 11:57:00 AM 30.8665 121.2759 238° Southwest  Level Estimated
Sun 11:58:00 AM 30.8110 121.1730 238° Southwest  Level Estimated
Sun 11:59:00 AM 30.7554 121.0702 238° Southwest  Level Estimated
Sun 12:00:00 PM 30.6998 120.9675 238° Southwest  Level Estimated
Sun 12:01:00 PM 30.6440 120.8649 238° Southwest  Level Estimated
Sun 12:02:00 PM 30.5882 120.7625 238° Southwest  Level Estimated
Sun 12:03:00 PM 30.5323 120.6601 238° Southwest  Level Estimated
Sun 12:04:00 PM 30.4763 120.5579 238° Southwest  Level Estimated
Sun 12:05:00 PM 30.4202 120.4558 238° Southwest  Level Estimated
Sun 12:06:00 PM 30.3641 120.3538 237° Southwest  Level Estimated
Sun 12:07:00 PM 30.3079 120.2520 237° Southwest  Level Estimated
Sun 12:08:00 PM 30.2516 120.1502 237° Southwest  Level Estimated
Sun 12:09:00 PM 30.1952 120.0486 237° Southwest  Level Estimated
Sun 12:10:00 PM 30.1387 119.9471 237° Southwest  Level Estimated
Sun 12:11:00 PM 30.0822 119.8456 237° Southwest  Level Estimated
Sun 12:12:00 PM 30.0256 119.7444 237° Southwest  Level Estimated
Sun 12:13:00 PM 29.9689 119.6432 237° Southwest  Level Estimated
Sun 12:14:00 PM 29.9121 119.5421 237° Southwest  Level Estimated
Sun 12:15:00 PM 29.8553 119.4412 237° Southwest  Level Estimated
Sun 12:16:00 PM 29.7983 119.3404 237° Southwest  Level Estimated
Sun 12:17:00 PM 29.7413 119.2397 237° Southwest  Level Estimated
Sun 12:18:00 PM 29.6843 119.1391 237° Southwest  Level Estimated
Sun 12:19:00 PM 29.6271 119.0386 237° Southwest  Level Estimated
Sun 12:20:00 PM 29.5699 118.9382 237° Southwest  Level Estimated
Sun 12:21:00 PM 29.5126 118.8380 237° Southwest  Level Estimated
Sun 12:22:00 PM 29.4552 118.7378 237° Southwest  Level Estimated
Sun 12:23:00 PM 29.3977 118.6378 237° Southwest  Level Estimated
Sun 12:24:00 PM 29.3381 118.5342 237° Southwest  Level Estimated
Sun 12:25:00 PM 29.2784 118.4308 237° Southwest  Level Estimated
Sun 12:26:00 PM 29.2186 118.3275 236° Southwest  Level Estimated
Sun 12:27:00 PM 29.1588 118.2243 236° Southwest  Level Estimated
Sun 12:28:00 PM 29.0988 118.1212 236° Southwest  Level Estimated
Sun 12:29:00 PM 29.0388 118.0183 236° Southwest  Level Estimated
Sun 12:30:00 PM 28.9787 117.9154 236° Southwest  Level Estimated
Sun 12:31:00 PM 28.9185 117.8127 236° Southwest  Level Estimated
Sun 12:32:00 PM 28.8582 117.7101 236° Southwest  Level Estimated
Sun 12:33:00 PM 28.7979 117.6077 236° Southwest  Level Estimated
Sun 12:34:00 PM 28.7375 117.5053 236° Southwest  Level Estimated
Sun 12:35:00 PM 28.6770 117.4031 236° Southwest  Level Estimated
Sun 12:36:00 PM 28.6164 117.3009 236° Southwest  Level Estimated
Sun 12:37:00 PM 28.5558 117.1989 236° Southwest  Level Estimated
Sun 12:38:00 PM 28.4951 117.0970 236° Southwest  Level Estimated
Sun 12:39:00 PM 28.4343 116.9953 236° Southwest  Level Estimated
Sun 12:40:00 PM 28.3734 116.8936 236° Southwest  Level Estimated
Sun 12:41:00 PM 28.3124 116.7921 236° Southwest  Level Estimated
Sun 12:42:00 PM 28.2514 116.6907 236° Southwest  Level Estimated
Sun 12:43:00 PM 28.1903 116.5894 236° Southwest  Level Estimated
Sun 12:44:00 PM 28.1292 116.4882 236° Southwest  Level Estimated
Sun 12:45:00 PM 28.0679 116.3871 236° Southwest  Level Estimated
Sun 12:46:00 PM 28.0066 116.2861 235° Southwest  Level Estimated
Sun 12:47:00 PM 27.9452 116.1853 235° Southwest  Level Estimated
Sun 12:48:00 PM 27.8837 116.0846 235° Southwest  Level Estimated
Sun 12:49:00 PM 27.8222 115.9840 235° Southwest  Level Estimated
Sun 12:50:00 PM 27.7606 115.8835 235° Southwest  Level Estimated
Sun 12:51:00 PM 27.6989 115.7831 235° Southwest  Level Estimated
Sun 12:52:00 PM 27.6371 115.6828 235° Southwest  Level Estimated
Sun 12:53:00 PM 27.5753 115.5826 235° Southwest  Level Estimated
Sun 12:54:00 PM 27.5134 115.4826 235° Southwest  Level Estimated
Sun 12:55:00 PM 27.4514 115.3827 235° Southwest  Level Estimated
Sun 12:56:00 PM 27.3894 115.2829 235° Southwest  Level Estimated
Sun 12:57:00 PM 27.3273 115.1831 235° Southwest  Level Estimated
Sun 12:58:00 PM 27.2651 115.0835 235° Southwest  Level Estimated
Sun 12:59:00 PM 27.2028 114.9841 235° Southwest  Level Estimated
Sun 01:00:00 PM 27.1405 114.8847 235° Southwest  Level Estimated
Sun 01:01:00 PM 27.0781 114.7854 235° Southwest  Level Estimated
Sun 01:02:00 PM 27.0156 114.6863 235° Southwest  Level Estimated
Sun 01:03:00 PM 26.9531 114.5872 235° Southwest  Level Estimated
Sun 01:04:00 PM 26.8905 114.4883 235° Southwest  Level Estimated
Sun 01:05:00 PM 26.8278 114.3895 235° Southwest  Level Estimated
Sun 01:06:00 PM 26.7651 114.2908 235° Southwest  Level Estimated
Sun 01:07:00 PM 26.7023 114.1921 235° Southwest  Level Estimated
Sun 01:08:00 PM 26.6394 114.0937 234° Southwest  Level Estimated
Sun 01:09:00 PM 26.5764 113.9953 234° Southwest  Level Estimated
Sun 01:10:00 PM 26.5134 113.8970 234° Southwest  Level Estimated
Sun 01:11:00 PM 26.4503 113.7988 234° Southwest  Level Estimated
Sun 01:12:00 PM 26.3872 113.7008 234° Southwest  Level Estimated
Sun 01:13:00 PM 26.3240 113.6028 234° Southwest  Level Estimated
Sun 01:14:00 PM 26.2607 113.5050 234° Southwest  Level Estimated
Sun 01:15:00 PM 26.1974 113.4072 234° Southwest  Level Estimated
Sun 01:16:00 PM 26.1339 113.3096 234° Southwest  Level Estimated
Sun 01:17:00 PM 26.0705 113.2120 234° Southwest  Level Estimated
Sun 01:18:00 PM 26.0069 113.1146 234° Southwest  Level Estimated
Sun 01:19:00 PM 25.9433 113.0173 234° Southwest  Level Estimated
Sun 01:20:00 PM 25.8796 112.9201 234° Southwest  Level Estimated
Sun 01:21:00 PM 25.8159 112.8230 234° Southwest  Level Estimated
Sun 01:22:00 PM 25.7521 112.7260 234° Southwest  Level Estimated
Sun 01:23:00 PM 25.6882 112.6291 234° Southwest  Level Estimated
Sun 01:24:00 PM 25.6243 112.5323 234° Southwest  Level Estimated
Sun 01:25:00 PM 25.5603 112.4356 234° Southwest  Level Estimated
Sun 01:26:00 PM 25.4962 112.3390 234° Southwest  Level Estimated
Sun 01:27:00 PM 25.4321 112.2425 234° Southwest  Level Estimated
Sun 01:28:00 PM 25.3679 112.1461 234° Southwest  Level Estimated
Sun 01:29:00 PM 25.3037 112.0498 234° Southwest  Level Estimated
Sun 01:30:00 PM 25.2394 111.9537 234° Southwest  Level Estimated
Sun 01:31:00 PM 25.1750 111.8576 233° Southwest  Level Estimated
Sun 01:32:00 PM 25.1106 111.7616 233° Southwest  Level Estimated
Sun 01:33:00 PM 25.0461 111.6657 233° Southwest  Level Estimated
Sun 01:34:00 PM 24.9815 111.5699 233° Southwest  Level Estimated
Sun 01:35:00 PM 24.9169 111.4743 233° Southwest  Level Estimated
Sun 01:36:00 PM 24.8522 111.3787 233° Southwest  Level Estimated
Sun 01:37:00 PM 24.7875 111.2832 233° Southwest  Level Estimated
Sun 01:38:00 PM 24.7227 111.1879 233° Southwest  Level Estimated
Sun 01:39:00 PM 24.6578 111.0926 233° Southwest  Level Estimated
Sun 01:40:00 PM 24.5929 110.9974 233° Southwest  Level Estimated
Sun 01:41:00 PM 24.5279 110.9023 233° Southwest  Level Estimated
Sun 01:42:00 PM 24.4629 110.8073 233° Southwest  Level Estimated
Sun 01:43:00 PM 24.3978 110.7125 233° Southwest  Level Estimated
Sun 01:44:00 PM 24.3326 110.6177 233° Southwest  Level Estimated
Sun 01:45:00 PM 24.2674 110.5230 233° Southwest  Level Estimated
Sun 01:46:00 PM 24.2021 110.4284 233° Southwest  Level Estimated
Sun 01:47:00 PM 24.1368 110.3339 233° Southwest  Level Estimated
Sun 01:48:00 PM 24.0714 110.2395 233° Southwest  Level Estimated
Sun 01:49:00 PM 24.0059 110.1452 233° Southwest  Level Estimated
Sun 01:50:00 PM 23.9404 110.0510 233° Southwest  Level Estimated
Sun 01:51:00 PM 23.8749 109.9569 233° Southwest  Level Estimated
Sun 01:52:00 PM 23.8092 109.8629 233° Southwest  Level Estimated
Sun 01:53:00 PM 23.7436 109.7690 233° Southwest  Level Estimated
Sun 01:54:00 PM 23.6778 109.6752 233° Southwest  Level Estimated
Sun 01:55:00 PM 23.6120 109.5814 233° Southwest  Level Estimated
Sun 01:56:00 PM 23.5462 109.4878 233° Southwest  Level Estimated
Sun 01:57:00 PM 23.4803 109.3943 232° Southwest  Level Estimated
Sun 01:58:00 PM 23.4143 109.3008 232° Southwest  Level Estimated
Sun 01:59:00 PM 23.3483 109.2075 232° Southwest  Level Estimated
Sun 02:00:00 PM 23.2822 109.1142 232° Southwest  Level Estimated
Sun 02:01:00 PM 23.2161 109.0210 232° Southwest  Level Estimated
Sun 02:02:00 PM 23.1499 108.9279 232° Southwest  Level Estimated
Sun 02:03:00 PM 23.0837 108.8350 232° Southwest  Level Estimated
Sun 02:04:00 PM 23.0174 108.7421 232° Southwest  Level Estimated
Sun 02:05:00 PM 22.9510 108.6493 232° Southwest  Level Estimated
Sun 02:06:00 PM 22.8846 108.5566 232° Southwest  Level Estimated
Sun 02:07:00 PM 22.8182 108.4640 232° Southwest  Level Estimated
Sun 02:08:00 PM 22.7517 108.3714 232° Southwest  Level Estimated
Sun 02:09:00 PM 22.6851 108.2790 232° Southwest  Level Estimated
Sun 02:10:00 PM 22.6185 108.1866 232° Southwest  Level Estimated
Sun 02:11:00 PM 22.6083 108.1724 232° Southwest  Level Estimated
Sun 02:12:00 PM 22.6083 108.1724 North  Level Estimated
Sun 02:13:00 PM 22.6083 108.1724 North  Level Estimated
Sun 02:14:00 PM 22.6083 108.1724 North  Level Estimated
Sun 02:15:00 PM 22.6083 108.1724 North  Level Estimated
Sun 02:16:00 PM 22.6083 108.1724 North  Level Estimated
Sun 02:17:00 PM 22.6083 108.1724 North  Level Estimated
Sun 02:18:00 PM 22.6083 108.1724 North  Level Estimated
Sun 02:19:00 PM 22.6083 108.1724 North  Level Estimated
Sun 02:20:00 PM 22.6083 108.1724 North  Level Estimated
Sun 02:21:00 PM 22.6083 108.1724 North  Level Estimated
Sun 02:22:00 PM 22.6083 108.1724 North  Level Estimated
Sun 02:23:00 PM 22.6083 108.1724 North  Level Estimated
Sun 02:24:00 PM 22.6083 108.1724 North  Level Estimated
Sun 02:25:00 PM 22.6083 108.1724 North  Level Estimated
Sun 02:26:00 PM 22.6083 108.1724 North  Level Estimated
Sun 02:27:00 PM 22.6083 108.1724 North  Level Estimated
Sun 02:28:00 PM 22.6083 108.1724 North  Level Estimated
Sun 02:29:00 PM 22.6083 108.1724 North  Level Estimated
Sun 02:30:00 PM 22.6083 108.1724 North  Level Estimated
Sun 02:31:00 PM 22.6083 108.1724 North  Level Estimated
Sun 02:32:00 PM 22.6083 108.1724 North  Level Estimated
Sun 02:33:00 PM 22.6083 108.1724 North  Level Estimated
Sun 02:34:00 PM 22.6083 108.1724 North  Level Estimated
Sun 02:35:00 PM 22.6083 108.1724 North  Level Estimated
Sun 02:36:00 PM 22.6083 108.1724 North  Level Estimated

Login

Don't have an account? Register now (free) for customized features, flight alerts, and more!